createdAt,value
2023-03-26T00:02:35.439Z,12.12
2023-03-26T00:14:35.354Z,12.10
2023-03-26T00:26:35.329Z,12.10
2023-03-26T00:38:35.332Z,12.08
2023-03-26T00:50:35.335Z,12.07
2023-03-26T01:02:35.429Z,12.06
2023-03-26T01:14:35.424Z,12.05
2023-03-26T01:26:35.393Z,12.04
2023-03-26T01:38:35.389Z,12.02
2023-03-26T01:50:35.313Z,12.02
2023-03-26T02:02:35.586Z,12.01
2023-03-26T02:14:35.422Z,12.00
2023-03-26T02:26:35.384Z,11.98
2023-03-26T02:38:35.307Z,11.97
2023-03-26T02:50:35.321Z,11.97
2023-03-26T03:02:35.493Z,11.95
2023-03-26T03:14:35.368Z,11.94
2023-03-26T03:26:35.391Z,11.93
2023-03-26T03:38:35.306Z,11.92
2023-03-26T03:50:36.011Z,11.91
2023-03-26T04:02:35.483Z,11.90
2023-03-26T04:14:35.364Z,11.89
2023-03-26T04:26:35.320Z,11.88
2023-03-26T04:38:35.316Z,11.86
2023-03-26T04:50:35.494Z,11.86
2023-03-26T05:02:35.353Z,11.85
2023-03-26T05:14:35.418Z,11.83
2023-03-26T05:26:35.407Z,11.83
2023-03-26T05:38:35.313Z,11.80
2023-03-26T05:50:35.350Z,11.80
2023-03-26T06:02:35.386Z,11.80
2023-03-26T06:14:35.320Z,11.79
2023-03-26T06:26:35.303Z,11.79
2023-03-26T06:38:35.431Z,11.78
2023-03-26T06:50:35.400Z,11.77
2023-03-26T07:02:35.342Z,11.77
2023-03-26T07:14:35.315Z,11.75
2023-03-26T07:26:35.364Z,11.76
2023-03-26T07:38:35.409Z,11.75
2023-03-26T07:50:35.313Z,11.76
2023-03-26T08:02:35.330Z,11.76
2023-03-26T08:14:35.423Z,11.76
2023-03-26T08:26:35.420Z,11.76
2023-03-26T08:38:35.400Z,11.76
2023-03-26T08:50:35.344Z,11.74
2023-03-26T09:02:35.337Z,11.75
2023-03-26T09:14:35.422Z,11.76
2023-03-26T09:26:35.333Z,11.77
2023-03-26T09:38:35.312Z,11.79
2023-03-26T09:50:35.456Z,11.79
2023-03-26T10:02:45.379Z,11.80
2023-03-26T10:14:35.311Z,11.80
2023-03-26T10:26:35.313Z,11.80
2023-03-26T10:38:35.313Z,11.82
2023-03-26T10:50:35.535Z,11.80
2023-03-26T11:02:35.352Z,11.83
2023-03-26T11:14:35.639Z,11.82
2023-03-26T11:26:36.110Z,11.82
2023-03-26T11:38:35.330Z,11.81
2023-03-26T11:50:35.446Z,11.83
2023-03-26T12:02:35.564Z,11.83
2023-03-26T12:14:35.430Z,11.85
2023-03-26T12:26:35.341Z,11.83
2023-03-26T12:38:35.314Z,11.82
2023-03-26T12:50:35.813Z,11.82
2023-03-26T13:02:35.504Z,11.83
2023-03-26T13:14:35.305Z,11.82
2023-03-26T13:26:35.379Z,11.82
2023-03-26T13:38:35.323Z,11.82
2023-03-26T13:50:35.455Z,11.84
2023-03-26T14:02:35.378Z,11.85
2023-03-26T14:14:35.322Z,11.89
2023-03-26T14:26:35.309Z,11.86
2023-03-26T14:38:35.315Z,11.85
2023-03-26T14:50:35.449Z,11.85
2023-03-26T15:02:35.413Z,11.89
2023-03-26T15:14:35.312Z,11.90
2023-03-26T15:26:35.372Z,11.90
2023-03-26T15:38:35.316Z,11.87
2023-03-26T15:50:35.556Z,11.88
2023-03-26T16:02:35.327Z,11.88
2023-03-26T16:14:35.321Z,11.87
2023-03-26T16:26:35.390Z,11.86
2023-03-26T16:38:35.313Z,11.85
2023-03-26T16:50:35.401Z,11.85
2023-03-26T17:02:35.685Z,11.83
2023-03-26T17:14:35.316Z,11.83
2023-03-26T17:26:35.435Z,11.81
2023-03-26T17:38:35.446Z,11.79
2023-03-26T17:50:35.434Z,11.79
2023-03-26T18:02:35.440Z,11.77
2023-03-26T18:14:35.320Z,11.76
2023-03-26T18:26:35.335Z,11.75
2023-03-26T18:38:38.549Z,11.73
2023-03-26T18:50:35.385Z,11.73
2023-03-26T19:02:35.536Z,11.71
2023-03-26T19:14:35.330Z,11.71
2023-03-26T19:26:35.419Z,11.69
2023-03-26T19:38:35.322Z,11.68
2023-03-26T19:50:37.151Z,11.67
2023-03-26T20:02:35.621Z,11.66
2023-03-26T20:14:35.320Z,11.65
2023-03-26T20:26:35.321Z,11.64
2023-03-26T20:38:39.453Z,11.63
2023-03-26T20:50:35.956Z,11.62
2023-03-26T21:02:35.491Z,11.61
2023-03-26T21:14:35.313Z,11.60
2023-03-26T21:26:35.414Z,11.59
2023-03-26T21:38:35.310Z,11.57
2023-03-26T21:50:35.424Z,11.57
2023-03-26T22:02:35.426Z,11.56
2023-03-26T22:14:35.330Z,11.55
2023-03-26T22:26:35.410Z,11.54
2023-03-26T22:38:35.307Z,11.53
2023-03-26T22:50:35.367Z,11.50
2023-03-26T23:02:35.344Z,11.51
2023-03-26T23:14:35.424Z,11.49
2023-03-26T23:26:47.852Z,11.49
2023-03-26T23:38:43.582Z,11.47
2023-03-26T23:50:35.380Z,11.47
